createdAt,value
2023-03-02T00:02:13.240Z,10.10
2023-03-02T00:04:57.989Z,10.63
2023-03-02T00:07:32.204Z,9.87
2023-03-02T00:10:01.931Z,10.67
2023-03-02T00:12:33.697Z,11.17
2023-03-02T00:15:03.360Z,9.80
2023-03-02T00:17:33.123Z,9.97
2023-03-02T00:20:10.388Z,10.03
2023-03-02T00:22:41.552Z,10.47
2023-03-02T00:25:10.031Z,10.00
2023-03-02T00:27:39.903Z,10.37
2023-03-02T00:30:07.831Z,10.50
2023-03-02T00:32:35.228Z,10.17
2023-03-02T00:35:02.807Z,10.33
2023-03-02T00:37:29.973Z,9.77
2023-03-02T00:39:57.073Z,9.97
2023-03-02T00:42:24.340Z,9.73
2023-03-02T00:44:54.741Z,9.67
2023-03-02T00:47:23.886Z,10.03
2023-03-02T00:49:53.542Z,10.17
2023-03-02T00:52:23.146Z,9.90
2023-03-02T00:54:50.243Z,10.33
2023-03-02T00:57:19.702Z,10.47
2023-03-02T00:59:51.281Z,10.93
2023-03-02T01:02:18.611Z,10.33
2023-03-02T01:04:46.342Z,10.13
2023-03-02T01:07:18.332Z,9.50
2023-03-02T01:09:53.236Z,10.13
2023-03-02T01:12:20.429Z,9.93
2023-03-02T01:14:49.164Z,10.80
2023-03-02T01:17:16.860Z,10.23
2023-03-02T01:19:44.075Z,9.90
2023-03-02T01:22:13.956Z,10.00
2023-03-02T01:24:43.182Z,10.13
2023-03-02T01:27:13.070Z,10.00
2023-03-02T01:29:42.515Z,10.00
2023-03-02T01:32:09.765Z,10.07
2023-03-02T01:34:39.250Z,10.37
2023-03-02T01:37:08.946Z,9.77
2023-03-02T01:39:38.178Z,11.03
2023-03-02T01:42:05.449Z,10.13
2023-03-02T01:44:39.725Z,11.00
2023-03-02T01:47:23.885Z,10.43
2023-03-02T01:49:59.230Z,10.80
2023-03-02T01:52:30.529Z,9.57
2023-03-02T01:55:04.111Z,10.40
2023-03-02T01:57:34.249Z,9.93
2023-03-02T02:00:08.519Z,9.50
2023-03-02T02:02:36.534Z,9.57
2023-03-02T02:05:08.390Z,9.43
2023-03-02T02:07:36.191Z,8.73
2023-03-02T02:10:04.103Z,9.97
2023-03-02T02:12:37.540Z,10.40
2023-03-02T02:15:08.112Z,10.40
2023-03-02T02:17:38.107Z,9.83
2023-03-02T02:20:39.537Z,9.67
2023-03-02T02:23:20.891Z,9.27
2023-03-02T02:25:53.658Z,9.30
2023-03-02T02:28:44.943Z,9.80
2023-03-02T02:31:34.921Z,9.37
2023-03-02T02:34:22.950Z,8.83
2023-03-02T02:36:54.741Z,10.17
2023-03-02T02:39:28.992Z,9.33
2023-03-02T02:41:59.233Z,9.70
2023-03-02T02:44:26.719Z,9.63
2023-03-02T02:46:53.897Z,9.63
2023-03-02T02:49:32.188Z,10.30
2023-03-02T02:52:00.043Z,9.80
2023-03-02T02:54:31.597Z,8.73
2023-03-02T02:57:03.799Z,8.93
2023-03-02T02:59:37.525Z,8.70
2023-03-02T03:02:04.929Z,8.53
2023-03-02T03:04:32.873Z,9.13
2023-03-02T03:07:05.310Z,8.87
2023-03-02T03:09:33.080Z,8.53
2023-03-02T03:12:18.244Z,9.67
2023-03-02T03:14:51.284Z,9.40
2023-03-02T03:17:20.513Z,8.53
2023-03-02T03:19:49.935Z,8.73
2023-03-02T03:22:21.752Z,9.03
2023-03-02T03:24:53.160Z,9.13
2023-03-02T03:27:22.773Z,9.10
2023-03-02T03:29:50.216Z,9.20
2023-03-02T03:32:22.522Z,9.83
2023-03-02T03:34:52.346Z,9.03
2023-03-02T03:37:20.656Z,9.20
2023-03-02T03:39:52.532Z,9.93
2023-03-02T03:42:19.664Z,8.70
2023-03-02T03:44:49.153Z,8.97
2023-03-02T03:47:22.941Z,10.13
2023-03-02T03:49:54.373Z,8.47
2023-03-02T03:52:30.433Z,10.00
2023-03-02T03:55:01.446Z,9.23
2023-03-02T03:57:29.434Z,9.37
2023-03-02T03:59:59.051Z,9.17
2023-03-02T04:02:26.231Z,10.07
2023-03-02T04:04:55.641Z,9.40
2023-03-02T04:07:22.798Z,8.43
2023-03-02T04:10:03.362Z,9.23
2023-03-02T04:12:34.461Z,9.30
2023-03-02T04:15:01.754Z,8.33
2023-03-02T04:17:31.212Z,9.13
2023-03-02T04:20:05.629Z,8.97
2023-03-02T04:22:35.332Z,9.03
2023-03-02T04:25:02.640Z,8.50
2023-03-02T04:27:31.786Z,9.43
2023-03-02T04:29:58.950Z,9.30
2023-03-02T04:32:28.415Z,8.97
2023-03-02T04:35:02.678Z,8.23
2023-03-02T04:37:30.010Z,8.20
2023-03-02T04:39:59.588Z,9.30
2023-03-02T04:42:29.104Z,8.93
2023-03-02T04:44:58.337Z,8.87
2023-03-02T04:47:32.649Z,9.43
2023-03-02T04:49:59.820Z,8.83
2023-03-02T04:52:29.116Z,9.27
2023-03-02T04:55:00.827Z,10.50
2023-03-02T04:57:32.173Z,8.53
2023-03-02T04:59:59.301Z,9.40
2023-03-02T05:02:28.598Z,9.73
2023-03-02T05:04:55.878Z,8.63
2023-03-02T05:07:23.076Z,9.17
2023-03-02T05:09:56.991Z,9.67
2023-03-02T05:12:24.214Z,8.83
2023-03-02T05:14:53.407Z,9.00
2023-03-02T05:17:22.811Z,8.63
2023-03-02T05:19:54.878Z,9.10
2023-03-02T05:22:21.998Z,9.03
2023-03-02T05:24:53.897Z,8.97
2023-03-02T05:27:25.376Z,8.90
2023-03-02T05:29:54.550Z,9.10
2023-03-02T05:32:26.220Z,9.10
2023-03-02T05:34:55.518Z,9.17
2023-03-02T05:37:24.914Z,8.40
2023-03-02T05:39:54.394Z,8.10
2023-03-02T05:42:21.623Z,8.30
2023-03-02T05:44:51.034Z,8.63
2023-03-02T05:47:18.212Z,8.73
2023-03-02T05:49:45.301Z,8.47
2023-03-02T05:52:12.428Z,7.27
2023-03-02T05:54:39.559Z,8.43
2023-03-02T05:57:09.210Z,7.87
2023-03-02T05:59:36.400Z,8.17
2023-03-02T06:02:07.932Z,7.67
2023-03-02T06:04:43.092Z,8.20
2023-03-02T06:07:17.852Z,8.23
2023-03-02T06:09:45.043Z,8.33
2023-03-02T06:12:12.152Z,9.03
2023-03-02T06:14:39.325Z,8.80
2023-03-02T06:17:06.458Z,8.57
2023-03-02T06:19:35.828Z,8.50
2023-03-02T06:22:05.515Z,8.60
2023-03-02T06:24:37.106Z,7.93
2023-03-02T06:27:04.300Z,8.47
2023-03-02T06:29:33.525Z,7.83
2023-03-02T06:32:05.724Z,8.17
2023-03-02T06:34:35.547Z,8.03
2023-03-02T06:37:02.669Z,8.63
2023-03-02T06:39:30.168Z,9.00
2023-03-02T06:41:57.360Z,8.07
2023-03-02T06:44:26.906Z,7.10
2023-03-02T06:46:59.144Z,8.60
2023-03-02T06:49:26.331Z,8.50
2023-03-02T06:51:55.904Z,6.97
2023-03-02T06:54:25.283Z,8.27
2023-03-02T06:56:52.415Z,7.80
2023-03-02T06:59:21.963Z,8.47
2023-03-02T07:01:50.609Z,7.97
2023-03-02T07:04:20.176Z,8.27
2023-03-02T07:06:49.640Z,8.50
2023-03-02T07:09:18.837Z,8.70
2023-03-02T07:11:48.317Z,7.77
2023-03-02T07:14:17.624Z,8.77
2023-03-02T07:16:47.037Z,8.20
2023-03-02T07:19:16.756Z,7.90
2023-03-02T07:21:46.165Z,8.60
2023-03-02T07:24:13.304Z,10.07
2023-03-02T07:26:44.778Z,8.83
2023-03-02T07:29:12.033Z,8.90
2023-03-02T07:31:46.313Z,7.93
2023-03-02T07:34:16.325Z,8.87
2023-03-02T07:36:43.505Z,8.50
2023-03-02T07:39:10.685Z,8.53
2023-03-02T07:41:42.336Z,9.07
2023-03-02T07:44:11.874Z,8.50
2023-03-02T07:46:41.589Z,8.83
2023-03-02T07:49:09.093Z,8.03
2023-03-02T07:51:38.590Z,8.37
2023-03-02T07:54:05.758Z,8.63
2023-03-02T07:56:32.930Z,8.20
2023-03-02T07:59:00.072Z,9.07
2023-03-02T08:01:27.617Z,8.27
2023-03-02T08:03:54.726Z,8.93
2023-03-02T08:06:21.847Z,8.83
2023-03-02T08:08:51.729Z,9.30
2023-03-02T08:11:21.339Z,8.77
2023-03-02T08:13:48.695Z,9.20
2023-03-02T08:16:16.551Z,9.00
2023-03-02T08:18:45.998Z,8.50
2023-03-02T08:21:21.860Z,9.07
2023-03-02T08:23:52.246Z,7.97
2023-03-02T08:26:20.336Z,8.73
2023-03-02T08:28:50.309Z,8.43
2023-03-02T08:31:17.610Z,9.03
2023-03-02T08:33:46.089Z,8.23
2023-03-02T08:36:18.988Z,8.63
2023-03-02T08:38:47.435Z,9.03
2023-03-02T08:41:23.580Z,9.13
2023-03-02T08:43:55.600Z,8.37
2023-03-02T08:46:25.220Z,8.10
2023-03-02T08:48:59.939Z,9.13
2023-03-02T08:51:27.501Z,8.40
2023-03-02T08:53:57.257Z,9.00
2023-03-02T08:56:32.586Z,7.97
2023-03-02T08:59:04.897Z,8.13
2023-03-02T09:01:36.728Z,8.87
2023-03-02T09:04:10.911Z,8.77
2023-03-02T09:06:41.809Z,8.90
2023-03-02T09:09:10.203Z,8.90
2023-03-02T09:11:42.286Z,8.57
2023-03-02T09:14:09.870Z,9.60
2023-03-02T09:16:39.656Z,8.90
2023-03-02T09:19:13.040Z,9.00
2023-03-02T09:21:43.269Z,8.87
2023-03-02T09:24:10.576Z,8.97
2023-03-02T09:26:39.957Z,9.83
2023-03-02T09:29:09.470Z,9.27
2023-03-02T09:31:38.103Z,9.10
2023-03-02T09:34:10.162Z,9.77
2023-03-02T09:36:38.114Z,9.83
2023-03-02T09:39:09.602Z,9.50
2023-03-02T09:41:42.579Z,9.13
2023-03-02T09:44:28.315Z,9.57
2023-03-02T09:47:05.981Z,8.33
2023-03-02T09:49:54.558Z,9.37
2023-03-02T09:52:40.348Z,9.67
2023-03-02T09:55:15.762Z,9.47
2023-03-02T09:57:43.616Z,9.23
2023-03-02T10:00:25.949Z,9.87
2023-03-02T10:03:16.603Z,9.20
2023-03-02T10:05:50.045Z,9.90
2023-03-02T10:08:26.081Z,9.23
2023-03-02T10:11:14.545Z,9.87
2023-03-02T10:14:13.789Z,10.13
2023-03-02T10:17:01.828Z,10.30
2023-03-02T10:19:42.319Z,10.67
2023-03-02T10:22:23.947Z,10.20
2023-03-02T10:24:57.390Z,10.50
2023-03-02T10:27:44.605Z,10.40
2023-03-02T10:30:20.501Z,9.63
2023-03-02T10:32:55.935Z,10.33
2023-03-02T10:35:28.907Z,10.80
2023-03-02T10:38:07.309Z,10.20
2023-03-02T10:40:49.250Z,11.23
2023-03-02T10:43:29.996Z,10.30
2023-03-02T10:46:02.796Z,10.43
2023-03-02T10:48:30.135Z,10.87
2023-03-02T10:50:59.100Z,10.63
2023-03-02T10:53:30.161Z,11.30
2023-03-02T10:55:59.530Z,10.97
2023-03-02T10:58:32.455Z,11.37
2023-03-02T11:01:01.615Z,11.23
2023-03-02T11:03:29.528Z,12.23
2023-03-02T11:05:58.788Z,11.67
2023-03-02T11:08:33.028Z,12.30
2023-03-02T11:11:04.931Z,12.43
2023-03-02T11:13:32.285Z,11.83
2023-03-02T11:16:22.209Z,11.27
2023-03-02T11:18:59.679Z,12.00
2023-03-02T11:21:32.936Z,11.87
2023-03-02T11:24:33.705Z,11.60
2023-03-02T11:27:16.429Z,11.70
2023-03-02T11:29:54.712Z,12.10
2023-03-02T11:32:31.505Z,12.27
2023-03-02T11:35:05.190Z,12.50
2023-03-02T11:37:55.205Z,11.57
2023-03-02T11:40:47.063Z,11.67
2023-03-02T11:43:19.044Z,12.07
2023-03-02T11:46:21.674Z,12.30
2023-03-02T11:48:52.824Z,13.00
2023-03-02T11:51:36.304Z,12.33
2023-03-02T11:54:11.714Z,12.23
2023-03-02T11:56:42.957Z,11.73
2023-03-02T11:59:19.815Z,11.67
2023-03-02T12:01:54.594Z,13.17
2023-03-02T12:04:35.371Z,12.17
2023-03-02T12:07:16.018Z,12.10
2023-03-02T12:10:11.043Z,11.97
2023-03-02T12:12:48.218Z,11.53
2023-03-02T12:15:36.268Z,11.27
2023-03-02T12:18:16.235Z,11.37
2023-03-02T12:20:48.418Z,12.67
2023-03-02T12:23:24.199Z,12.43
2023-03-02T12:26:24.292Z,12.33
2023-03-02T12:29:09.546Z,11.97
2023-03-02T12:31:46.806Z,12.10
2023-03-02T12:34:46.185Z,12.57
2023-03-02T12:37:23.306Z,12.43
2023-03-02T12:40:15.509Z,12.47
2023-03-02T12:43:20.067Z,12.80
2023-03-02T12:46:13.592Z,12.97
2023-03-02T12:49:01.567Z,13.17
2023-03-02T12:51:33.526Z,14.90
2023-03-02T12:54:14.893Z,15.67
2023-03-02T12:56:46.177Z,15.77
2023-03-02T12:59:27.448Z,17.30
2023-03-02T13:02:15.833Z,18.43
2023-03-02T13:04:52.129Z,20.07
2023-03-02T13:07:26.982Z,18.93
2023-03-02T13:09:59.399Z,19.23
2023-03-02T13:12:29.319Z,18.30
2023-03-02T13:14:59.481Z,17.27
2023-03-02T13:17:32.877Z,17.20
2023-03-02T13:20:05.376Z,16.53
2023-03-02T13:22:53.067Z,16.30
2023-03-02T13:25:47.276Z,16.10
2023-03-02T13:28:33.973Z,15.10
2023-03-02T13:31:07.764Z,14.70
2023-03-02T13:33:43.624Z,14.80
2023-03-02T13:36:22.798Z,12.63
2023-03-02T13:38:55.055Z,13.63
2023-03-02T13:41:31.426Z,13.57
2023-03-02T13:43:59.991Z,12.67
2023-03-02T13:46:45.694Z,12.30
2023-03-02T13:49:32.809Z,12.67
2023-03-02T13:52:27.668Z,12.70
2023-03-02T13:54:55.130Z,12.37
2023-03-02T13:57:30.610Z,11.53
2023-03-02T14:00:02.962Z,11.97
2023-03-02T14:02:30.925Z,12.60
2023-03-02T14:05:00.319Z,12.43
2023-03-02T14:07:32.269Z,12.00
2023-03-02T14:09:59.372Z,11.40
2023-03-02T14:12:30.420Z,11.17
2023-03-02T14:15:00.367Z,11.80
2023-03-02T14:17:30.160Z,12.20
2023-03-02T14:19:57.716Z,11.97
2023-03-02T14:22:29.695Z,12.07
2023-03-02T14:24:56.882Z,12.43
2023-03-02T14:27:30.041Z,12.83
2023-03-02T14:29:57.853Z,12.87
2023-03-02T14:32:29.643Z,11.63
2023-03-02T14:34:57.329Z,13.10
2023-03-02T14:37:30.284Z,12.53
2023-03-02T14:39:57.732Z,12.03
2023-03-02T14:42:24.923Z,11.97
2023-03-02T14:44:52.425Z,11.63
2023-03-02T14:47:19.765Z,12.03
2023-03-02T14:49:51.902Z,12.00
2023-03-02T14:52:33.389Z,12.10
2023-03-02T14:55:10.280Z,12.70
2023-03-02T14:57:43.812Z,12.23
2023-03-02T15:00:15.384Z,11.83
2023-03-02T15:02:42.748Z,12.20
2023-03-02T15:05:12.550Z,11.93
2023-03-02T15:07:44.601Z,13.30
2023-03-02T15:10:17.314Z,11.47
2023-03-02T15:12:46.834Z,12.90
2023-03-02T15:15:14.116Z,11.60
2023-03-02T15:17:43.823Z,12.77
2023-03-02T15:20:16.140Z,12.03
2023-03-02T15:22:46.091Z,12.80
2023-03-02T15:25:15.459Z,11.40
2023-03-02T15:27:44.768Z,12.00
2023-03-02T15:30:12.429Z,11.83
2023-03-02T15:32:39.812Z,11.50
2023-03-02T15:35:14.120Z,12.10
2023-03-02T15:37:44.755Z,11.53
2023-03-02T15:40:14.449Z,11.53
2023-03-02T15:42:43.822Z,11.70
2023-03-02T15:45:11.458Z,11.07
2023-03-02T15:47:40.750Z,10.77
2023-03-02T15:50:10.864Z,11.17
2023-03-02T15:52:42.657Z,11.23
2023-03-02T15:55:10.069Z,11.57
2023-03-02T15:57:40.393Z,10.63
2023-03-02T16:00:08.743Z,12.20
2023-03-02T16:02:36.152Z,10.80
2023-03-02T16:05:08.427Z,12.17
2023-03-02T16:07:37.852Z,11.13
2023-03-02T16:10:08.538Z,11.73
2023-03-02T16:12:37.941Z,11.57
2023-03-02T16:15:05.889Z,10.70
2023-03-02T16:17:35.120Z,12.50
2023-03-02T16:20:02.268Z,11.93
2023-03-02T16:22:31.888Z,11.20
2023-03-02T16:25:03.974Z,11.47
2023-03-02T16:27:33.273Z,11.00
2023-03-02T16:30:02.827Z,11.87
2023-03-02T16:32:34.207Z,12.23
2023-03-02T16:35:04.140Z,11.40
2023-03-02T16:37:32.089Z,12.57
2023-03-02T16:40:04.561Z,11.87
2023-03-02T16:42:34.008Z,11.63
2023-03-02T16:45:06.503Z,11.30
2023-03-02T16:47:36.445Z,12.30
2023-03-02T16:50:05.108Z,11.47
2023-03-02T16:52:32.254Z,11.70
2023-03-02T16:55:02.176Z,12.07
2023-03-02T16:57:29.578Z,11.73
2023-03-02T16:59:56.702Z,11.40
2023-03-02T17:02:23.839Z,12.30
2023-03-02T17:04:53.437Z,11.23
2023-03-02T17:07:22.819Z,11.70
2023-03-02T17:09:52.065Z,11.90
2023-03-02T17:12:19.362Z,10.67
2023-03-02T17:14:51.618Z,11.03
2023-03-02T17:17:20.850Z,12.07
2023-03-02T17:19:48.013Z,10.23
2023-03-02T17:22:15.205Z,11.03
2023-03-02T17:24:44.447Z,11.20
2023-03-02T17:27:24.598Z,11.33
2023-03-02T17:29:53.817Z,10.40
2023-03-02T17:32:24.277Z,10.70
2023-03-02T17:34:51.414Z,9.80
2023-03-02T17:37:25.718Z,10.87
2023-03-02T17:39:53.023Z,10.43
2023-03-02T17:42:20.277Z,10.60
2023-03-02T17:44:51.582Z,10.80
2023-03-02T17:47:21.283Z,11.07
2023-03-02T17:49:48.518Z,11.03
2023-03-02T17:52:18.814Z,11.20
2023-03-02T17:54:53.684Z,11.60
2023-03-02T17:57:23.545Z,11.20
2023-03-02T17:59:50.899Z,11.60
2023-03-02T18:02:20.361Z,12.43
2023-03-02T18:04:47.508Z,11.87
2023-03-02T18:07:17.910Z,12.17
2023-03-02T18:09:49.668Z,11.97
2023-03-02T18:12:16.850Z,11.90
2023-03-02T18:14:44.124Z,11.87
2023-03-02T18:17:15.042Z,12.33
2023-03-02T18:19:42.312Z,13.67
2023-03-02T18:22:13.146Z,12.70
2023-03-02T18:24:42.599Z,12.10
2023-03-02T18:27:09.775Z,12.30
2023-03-02T18:29:37.005Z,12.97
2023-03-02T18:32:06.796Z,13.07
2023-03-02T18:34:34.185Z,12.93
2023-03-02T18:37:01.413Z,12.90
2023-03-02T18:39:30.639Z,13.63
2023-03-02T18:41:57.882Z,13.37
2023-03-02T18:44:28.031Z,12.37
2023-03-02T18:46:56.073Z,12.87
2023-03-02T18:49:25.745Z,13.27
2023-03-02T18:51:56.614Z,12.10
2023-03-02T18:54:26.579Z,12.43
2023-03-02T18:56:56.143Z,11.90
2023-03-02T18:59:25.393Z,11.97
2023-03-02T19:01:52.512Z,12.27
2023-03-02T19:04:19.709Z,12.57
2023-03-02T19:06:49.931Z,12.57
2023-03-02T19:09:17.115Z,11.57
2023-03-02T19:11:49.395Z,12.07
2023-03-02T19:14:21.775Z,11.13
2023-03-02T19:16:49.438Z,11.13
2023-03-02T19:19:21.325Z,11.93
2023-03-02T19:21:48.470Z,11.90
2023-03-02T19:24:17.913Z,12.37
2023-03-02T19:26:47.490Z,12.83
2023-03-02T19:29:19.365Z,13.20
2023-03-02T19:31:51.264Z,12.80
2023-03-02T19:34:21.442Z,13.10
2023-03-02T19:36:48.848Z,13.30
2023-03-02T19:39:20.675Z,12.63
2023-03-02T19:41:49.935Z,13.67
2023-03-02T19:44:17.135Z,13.10
2023-03-02T19:46:49.411Z,12.83
2023-03-02T19:49:17.119Z,12.70
2023-03-02T19:51:44.346Z,12.63
2023-03-02T19:54:13.724Z,12.97
2023-03-02T19:56:43.418Z,13.47
2023-03-02T19:59:11.215Z,12.73
2023-03-02T20:01:39.443Z,12.53
2023-03-02T20:04:06.900Z,12.70
2023-03-02T20:06:38.545Z,12.67
2023-03-02T20:09:07.172Z,12.73
2023-03-02T20:11:34.730Z,14.10
2023-03-02T20:14:02.413Z,13.63
2023-03-02T20:16:38.914Z,12.70
2023-03-02T20:19:08.504Z,13.50
2023-03-02T20:21:38.194Z,12.30
2023-03-02T20:24:09.960Z,13.13
2023-03-02T20:26:37.249Z,12.50
2023-03-02T20:29:05.950Z,12.63
2023-03-02T20:31:35.928Z,12.43
2023-03-02T20:34:07.089Z,12.23
2023-03-02T20:36:37.386Z,12.73
2023-03-02T20:39:13.160Z,12.40
2023-03-02T20:41:40.680Z,12.73
2023-03-02T20:44:14.858Z,12.87
2023-03-02T20:46:45.823Z,12.80
2023-03-02T20:49:18.823Z,13.23
2023-03-02T20:51:52.744Z,13.10
2023-03-02T20:54:28.019Z,12.57
2023-03-02T20:56:55.322Z,12.23
2023-03-02T20:59:23.643Z,13.60
2023-03-02T21:01:53.533Z,14.10
2023-03-02T21:04:23.942Z,13.50
2023-03-02T21:06:51.180Z,12.70
2023-03-02T21:09:22.978Z,13.87
2023-03-02T21:11:52.638Z,13.67
2023-03-02T21:14:19.929Z,13.67
2023-03-02T21:16:49.649Z,14.70
2023-03-02T21:19:20.300Z,14.13
2023-03-02T21:21:50.226Z,13.63
2023-03-02T21:24:20.745Z,14.37
2023-03-02T21:26:52.047Z,14.23
2023-03-02T21:29:26.782Z,12.97
2023-03-02T21:31:54.586Z,14.30
2023-03-02T21:34:22.333Z,14.30
2023-03-02T21:36:53.739Z,13.70
2023-03-02T21:39:23.855Z,14.37
2023-03-02T21:41:54.569Z,14.40
2023-03-02T21:44:21.756Z,14.37
2023-03-02T21:46:51.133Z,14.00
2023-03-02T21:49:22.140Z,14.87
2023-03-02T21:51:55.930Z,13.57
2023-03-02T21:54:23.111Z,15.13
2023-03-02T21:56:50.274Z,15.03
2023-03-02T21:59:17.466Z,14.63
2023-03-02T22:01:44.682Z,15.00
2023-03-02T22:04:11.897Z,14.93
2023-03-02T22:06:39.026Z,15.20
2023-03-02T22:09:08.435Z,15.40
2023-03-02T22:11:38.466Z,14.73
2023-03-02T22:14:17.776Z,15.37
2023-03-02T22:16:48.232Z,14.73
2023-03-02T22:19:27.740Z,15.33
2023-03-02T22:21:56.449Z,16.07
2023-03-02T22:24:29.046Z,14.97
2023-03-02T22:27:08.964Z,16.03
2023-03-02T22:29:42.755Z,15.10
2023-03-02T22:32:21.879Z,15.87
2023-03-02T22:34:51.777Z,15.27
2023-03-02T22:37:29.518Z,15.27
2023-03-02T22:40:01.677Z,14.70
2023-03-02T22:42:32.284Z,16.30
2023-03-02T22:45:02.182Z,15.43
2023-03-02T22:47:32.144Z,15.43
2023-03-02T22:50:15.212Z,16.27
2023-03-02T22:52:44.636Z,16.40
2023-03-02T22:55:44.181Z,16.43
2023-03-02T22:58:52.610Z,15.30
2023-03-02T23:01:23.898Z,16.57
2023-03-02T23:03:59.554Z,17.03
2023-03-02T23:06:31.398Z,17.27
2023-03-02T23:09:05.896Z,16.37
2023-03-02T23:11:43.695Z,16.30
2023-03-02T23:14:27.315Z,17.40
2023-03-02T23:16:57.011Z,17.03
2023-03-02T23:19:28.579Z,16.73
2023-03-02T23:21:56.376Z,17.87
2023-03-02T23:24:25.846Z,17.43
2023-03-02T23:26:57.598Z,17.50
2023-03-02T23:29:27.169Z,17.63
2023-03-02T23:31:56.440Z,17.60
2023-03-02T23:34:31.033Z,15.90
2023-03-02T23:37:17.935Z,18.20
2023-03-02T23:39:47.818Z,17.70
2023-03-02T23:42:15.009Z,17.50
2023-03-02T23:44:45.319Z,17.10
2023-03-02T23:47:12.481Z,17.80
2023-03-02T23:49:42.352Z,18.87
2023-03-02T23:52:11.599Z,17.70
2023-03-02T23:54:38.769Z,18.00
2023-03-02T23:57:05.981Z,18.80
2023-03-02T23:59:37.958Z,17.93
